sensor_id;sensor_type;location;lat;lon;timestamp;temperature;humidity
16744;DHT22;71724;-33.900;151.182;2023-11-19T00:00:30;24.60;55.10
16744;DHT22;71724;-33.900;151.182;2023-11-19T00:02:58;24.70;54.80
16744;DHT22;71724;-33.900;151.182;2023-11-19T00:05:27;24.70;54.80
16744;DHT22;71724;-33.900;151.182;2023-11-19T00:07:59;24.70;54.80
16744;DHT22;71724;-33.900;151.182;2023-11-19T00:10:26;24.70;54.50
16744;DHT22;71724;-33.900;151.182;2023-11-19T00:12:54;24.80;54.60
16744;DHT22;71724;-33.900;151.182;2023-11-19T00:15:26;24.80;55.10
16744;DHT22;71724;-33.900;151.182;2023-11-19T00:17:53;24.90;54.60
16744;DHT22;71724;-33.900;151.182;2023-11-19T00:20:21;25.00;54.00
16744;DHT22;71724;-33.900;151.182;2023-11-19T00:22:49;25.00;53.80
16744;DHT22;71724;-33.900;151.182;2023-11-19T00:25:20;25.00;54.00
16744;DHT22;71724;-33.900;151.182;2023-11-19T00:27:53;25.00;53.50
16744;DHT22;71724;-33.900;151.182;2023-11-19T00:30:23;25.00;53.20
16744;DHT22;71724;-33.900;151.182;2023-11-19T00:32:50;25.00;53.20
16744;DHT22;71724;-33.900;151.182;2023-11-19T00:35:18;25.00;53.50
16744;DHT22;71724;-33.900;151.182;2023-11-19T00:37:46;25.10;52.80
16744;DHT22;71724;-33.900;151.182;2023-11-19T00:40:14;25.10;53.00
16744;DHT22;71724;-33.900;151.182;2023-11-19T00:42:42;25.10;54.00
16744;DHT22;71724;-33.900;151.182;2023-11-19T00:45:10;25.20;54.50
16744;DHT22;71724;-33.900;151.182;2023-11-19T00:47:39;25.20;54.50
16744;DHT22;71724;-33.900;151.182;2023-11-19T00:50:07;25.30;53.90
16744;DHT22;71724;-33.900;151.182;2023-11-19T00:52:38;25.30;54.30
16744;DHT22;71724;-33.900;151.182;2023-11-19T00:55:06;25.30;53.90
16744;DHT22;71724;-33.900;151.182;2023-11-19T00:57:34;25.30;53.70
16744;DHT22;71724;-33.900;151.182;2023-11-19T01:00:02;25.40;53.70
16744;DHT22;71724;-33.900;151.182;2023-11-19T01:02:41;25.50;53.90
16744;DHT22;71724;-33.900;151.182;2023-11-19T01:05:09;25.50;53.60
16744;DHT22;71724;-33.900;151.182;2023-11-19T01:07:41;25.70;53.50
16744;DHT22;71724;-33.900;151.182;2023-11-19T01:10:08;25.70;53.30
16744;DHT22;71724;-33.900;151.182;2023-11-19T01:12:36;25.80;52.60
16744;DHT22;71724;-33.900;151.182;2023-11-19T01:15:05;25.80;52.00
16744;DHT22;71724;-33.900;151.182;2023-11-19T01:17:33;25.80;52.00
16744;DHT22;71724;-33.900;151.182;2023-11-19T01:20:00;25.90;52.10
16744;DHT22;71724;-33.900;151.182;2023-11-19T01:22:27;25.90;51.90
16744;DHT22;71724;-33.900;151.182;2023-11-19T01:24:55;25.90;51.70
16744;DHT22;71724;-33.900;151.182;2023-11-19T01:27:24;25.90;51.10
16744;DHT22;71724;-33.900;151.182;2023-11-19T01:29:51;25.90;51.70
16744;DHT22;71724;-33.900;151.182;2023-11-19T01:32:18;25.90;51.80
16744;DHT22;71724;-33.900;151.182;2023-11-19T01:34:46;26.00;52.10
16744;DHT22;71724;-33.900;151.182;2023-11-19T01:37:13;26.00;52.00
16744;DHT22;71724;-33.900;151.182;2023-11-19T01:39:44;26.00;51.70
16744;DHT22;71724;-33.900;151.182;2023-11-19T01:42:12;26.00;51.90
16744;DHT22;71724;-33.900;151.182;2023-11-19T01:44:39;25.90;52.30
16744;DHT22;71724;-33.900;151.182;2023-11-19T01:47:08;26.00;52.60
16744;DHT22;71724;-33.900;151.182;2023-11-19T01:49:35;26.10;52.40
16744;DHT22;71724;-33.900;151.182;2023-11-19T01:52:04;26.10;52.70
16744;DHT22;71724;-33.900;151.182;2023-11-19T01:54:32;26.10;52.60
16744;DHT22;71724;-33.900;151.182;2023-11-19T01:56:59;26.10;52.30
16744;DHT22;71724;-33.900;151.182;2023-11-19T01:59:27;26.20;51.80
16744;DHT22;71724;-33.900;151.182;2023-11-19T02:01:55;26.20;52.10
16744;DHT22;71724;-33.900;151.182;2023-11-19T02:04:23;26.20;52.30
16744;DHT22;71724;-33.900;151.182;2023-11-19T02:06:52;26.30;52.40
16744;DHT22;71724;-33.900;151.182;2023-11-19T02:09:21;26.30;52.80
16744;DHT22;71724;-33.900;151.182;2023-11-19T02:11:49;26.30;52.70
16744;DHT22;71724;-33.900;151.182;2023-11-19T02:14:18;26.30;52.40
16744;DHT22;71724;-33.900;151.182;2023-11-19T02:16:46;26.30;52.50
16744;DHT22;71724;-33.900;151.182;2023-11-19T02:19:13;26.30;52.50
16744;DHT22;71724;-33.900;151.182;2023-11-19T02:21:41;26.30;53.00
16744;DHT22;71724;-33.900;151.182;2023-11-19T02:24:10;26.30;53.20
16744;DHT22;71724;-33.900;151.182;2023-11-19T02:26:44;26.30;52.80
16744;DHT22;71724;-33.900;151.182;2023-11-19T02:29:14;26.30;53.20
16744;DHT22;71724;-33.900;151.182;2023-11-19T02:31:41;26.30;53.50
16744;DHT22;71724;-33.900;151.182;2023-11-19T02:34:11;26.30;53.70
16744;DHT22;71724;-33.900;151.182;2023-11-19T02:36:39;26.30;54.00
16744;DHT22;71724;-33.900;151.182;2023-11-19T02:39:09;26.30;54.00
16744;DHT22;71724;-33.900;151.182;2023-11-19T02:41:39;26.40;54.10
16744;DHT22;71724;-33.900;151.182;2023-11-19T02:44:07;26.40;53.60
16744;DHT22;71724;-33.900;151.182;2023-11-19T02:46:34;26.40;53.60
16744;DHT22;71724;-33.900;151.182;2023-11-19T02:49:02;26.40;53.80
16744;DHT22;71724;-33.900;151.182;2023-11-19T02:51:29;26.30;54.10
16744;DHT22;71724;-33.900;151.182;2023-11-19T02:53:56;26.30;54.70
16744;DHT22;71724;-33.900;151.182;2023-11-19T02:56:24;26.30;55.10
16744;DHT22;71724;-33.900;151.182;2023-11-19T02:58:52;26.20;55.60
16744;DHT22;71724;-33.900;151.182;2023-11-19T03:01:26;26.20;56.00
16744;DHT22;71724;-33.900;151.182;2023-11-19T03:03:57;26.10;56.00
16744;DHT22;71724;-33.900;151.182;2023-11-19T03:06:25;26.00;56.20
16744;DHT22;71724;-33.900;151.182;2023-11-19T03:08:54;26.00;56.30
16744;DHT22;71724;-33.900;151.182;2023-11-19T03:11:21;26.00;56.30
16744;DHT22;71724;-33.900;151.182;2023-11-19T03:13:49;26.00;55.70
16744;DHT22;71724;-33.900;151.182;2023-11-19T03:16:16;26.00;55.20
16744;DHT22;71724;-33.900;151.182;2023-11-19T03:18:44;25.90;55.70
16744;DHT22;71724;-33.900;151.182;2023-11-19T03:21:11;25.90;56.00
16744;DHT22;71724;-33.900;151.182;2023-11-19T03:23:40;25.80;56.10
16744;DHT22;71724;-33.900;151.182;2023-11-19T03:26:07;25.80;56.20
16744;DHT22;71724;-33.900;151.182;2023-11-19T03:28:35;25.80;56.70
16744;DHT22;71724;-33.900;151.182;2023-11-19T03:31:06;25.80;56.80
16744;DHT22;71724;-33.900;151.182;2023-11-19T03:33:36;25.80;57.20
16744;DHT22;71724;-33.900;151.182;2023-11-19T03:36:04;25.70;57.40
16744;DHT22;71724;-33.900;151.182;2023-11-19T03:38:32;25.60;57.60
16744;DHT22;71724;-33.900;151.182;2023-11-19T03:40:59;25.60;57.60
16744;DHT22;71724;-33.900;151.182;2023-11-19T03:43:26;25.70;57.40
16744;DHT22;71724;-33.900;151.182;2023-11-19T03:45:54;25.60;57.80
16744;DHT22;71724;-33.900;151.182;2023-11-19T03:48:21;25.50;57.90
16744;DHT22;71724;-33.900;151.182;2023-11-19T03:50:49;25.60;57.90
16744;DHT22;71724;-33.900;151.182;2023-11-19T03:53:16;25.60;57.70
16744;DHT22;71724;-33.900;151.182;2023-11-19T03:55:45;25.60;57.70
16744;DHT22;71724;-33.900;151.182;2023-11-19T03:58:13;25.60;57.40
16744;DHT22;71724;-33.900;151.182;2023-11-19T04:00:43;25.60;57.20
16744;DHT22;71724;-33.900;151.182;2023-11-19T04:03:10;25.70;57.40
16744;DHT22;71724;-33.900;151.182;2023-11-19T04:05:38;25.70;57.50
16744;DHT22;71724;-33.900;151.182;2023-11-19T04:08:06;25.70;57.00
16744;DHT22;71724;-33.900;151.182;2023-11-19T04:10:35;25.60;57.20
16744;DHT22;71724;-33.900;151.182;2023-11-19T04:13:02;25.70;57.20
16744;DHT22;71724;-33.900;151.182;2023-11-19T04:15:30;25.60;57.50
16744;DHT22;71724;-33.900;151.182;2023-11-19T04:17:57;25.60;57.40
16744;DHT22;71724;-33.900;151.182;2023-11-19T04:20:24;25.70;57.30
16744;DHT22;71724;-33.900;151.182;2023-11-19T04:22:52;25.70;57.20
16744;DHT22;71724;-33.900;151.182;2023-11-19T04:25:20;25.80;57.30
16744;DHT22;71724;-33.900;151.182;2023-11-19T04:27:47;25.80;57.40
16744;DHT22;71724;-33.900;151.182;2023-11-19T04:30:15;25.70;57.10
16744;DHT22;71724;-33.900;151.182;2023-11-19T04:32:42;25.80;57.40
16744;DHT22;71724;-33.900;151.182;2023-11-19T04:35:10;25.70;57.20
16744;DHT22;71724;-33.900;151.182;2023-11-19T04:37:38;25.70;57.20
16744;DHT22;71724;-33.900;151.182;2023-11-19T04:40:06;25.70;57.40
16744;DHT22;71724;-33.900;151.182;2023-11-19T04:42:33;25.70;57.20
16744;DHT22;71724;-33.900;151.182;2023-11-19T04:45:01;25.70;57.40
16744;DHT22;71724;-33.900;151.182;2023-11-19T04:47:28;25.70;56.60
16744;DHT22;71724;-33.900;151.182;2023-11-19T04:49:58;25.70;56.80
16744;DHT22;71724;-33.900;151.182;2023-11-19T04:52:25;25.70;57.20
16744;DHT22;71724;-33.900;151.182;2023-11-19T04:54:53;25.70;57.40
16744;DHT22;71724;-33.900;151.182;2023-11-19T04:57:21;25.80;57.70
16744;DHT22;71724;-33.900;151.182;2023-11-19T04:59:48;25.80;57.90
16744;DHT22;71724;-33.900;151.182;2023-11-19T05:02:16;25.70;58.00
16744;DHT22;71724;-33.900;151.182;2023-11-19T05:04:44;25.70;57.90
16744;DHT22;71724;-33.900;151.182;2023-11-19T05:07:13;25.70;58.50
16744;DHT22;71724;-33.900;151.182;2023-11-19T05:09:40;25.70;58.40
16744;DHT22;71724;-33.900;151.182;2023-11-19T05:12:09;25.80;58.60
16744;DHT22;71724;-33.900;151.182;2023-11-19T05:14:39;25.80;58.60
16744;DHT22;71724;-33.900;151.182;2023-11-19T05:17:06;25.70;59.00
16744;DHT22;71724;-33.900;151.182;2023-11-19T05:19:34;25.60;59.60
16744;DHT22;71724;-33.900;151.182;2023-11-19T05:22:01;25.60;59.80
16744;DHT22;71724;-33.900;151.182;2023-11-19T05:24:29;25.60;59.80
16744;DHT22;71724;-33.900;151.182;2023-11-19T05:26:58;25.60;60.00
16744;DHT22;71724;-33.900;151.182;2023-11-19T05:29:25;25.70;60.00
16744;DHT22;71724;-33.900;151.182;2023-11-19T05:31:53;25.60;60.00
16744;DHT22;71724;-33.900;151.182;2023-11-19T05:34:21;25.70;60.00
16744;DHT22;71724;-33.900;151.182;2023-11-19T05:36:49;25.70;60.00
16744;DHT22;71724;-33.900;151.182;2023-11-19T05:39:17;25.70;60.10
16744;DHT22;71724;-33.900;151.182;2023-11-19T05:41:48;25.70;60.10
16744;DHT22;71724;-33.900;151.182;2023-11-19T05:44:16;25.80;60.20
16744;DHT22;71724;-33.900;151.182;2023-11-19T05:46:45;25.70;60.70
16744;DHT22;71724;-33.900;151.182;2023-11-19T05:49:12;25.80;60.60
16744;DHT22;71724;-33.900;151.182;2023-11-19T05:51:40;25.70;60.50
16744;DHT22;71724;-33.900;151.182;2023-11-19T05:54:14;25.70;60.70
16744;DHT22;71724;-33.900;151.182;2023-11-19T05:56:41;25.70;61.00
16744;DHT22;71724;-33.900;151.182;2023-11-19T05:59:08;25.80;61.00
16744;DHT22;71724;-33.900;151.182;2023-11-19T06:01:41;25.70;61.10
16744;DHT22;71724;-33.900;151.182;2023-11-19T06:04:09;25.80;61.10
16744;DHT22;71724;-33.900;151.182;2023-11-19T06:06:39;25.70;60.90
16744;DHT22;71724;-33.900;151.182;2023-11-19T06:09:07;25.70;61.20
16744;DHT22;71724;-33.900;151.182;2023-11-19T06:11:35;25.70;61.40
16744;DHT22;71724;-33.900;151.182;2023-11-19T06:14:03;25.70;61.60
16744;DHT22;71724;-33.900;151.182;2023-11-19T06:16:32;25.70;61.40
16744;DHT22;71724;-33.900;151.182;2023-11-19T06:18:59;25.70;61.50
16744;DHT22;71724;-33.900;151.182;2023-11-19T06:21:27;25.70;61.70
16744;DHT22;71724;-33.900;151.182;2023-11-19T06:23:54;25.60;61.50
16744;DHT22;71724;-33.900;151.182;2023-11-19T06:26:21;25.60;61.60
16744;DHT22;71724;-33.900;151.182;2023-11-19T06:28:50;25.50;61.80
16744;DHT22;71724;-33.900;151.182;2023-11-19T06:31:17;25.40;61.90
16744;DHT22;71724;-33.900;151.182;2023-11-19T06:33:44;25.40;62.10
16744;DHT22;71724;-33.900;151.182;2023-11-19T06:36:15;25.40;62.30
16744;DHT22;71724;-33.900;151.182;2023-11-19T06:38:45;25.40;62.20
16744;DHT22;71724;-33.900;151.182;2023-11-19T06:41:12;25.40;62.50
16744;DHT22;71724;-33.900;151.182;2023-11-19T06:43:40;25.30;62.60
16744;DHT22;71724;-33.900;151.182;2023-11-19T06:46:15;25.30;62.50
16744;DHT22;71724;-33.900;151.182;2023-11-19T06:48:42;25.30;62.50
16744;DHT22;71724;-33.900;151.182;2023-11-19T06:51:11;25.30;62.60
16744;DHT22;71724;-33.900;151.182;2023-11-19T06:53:38;25.20;63.20
16744;DHT22;71724;-33.900;151.182;2023-11-19T06:56:23;25.20;63.30
16744;DHT22;71724;-33.900;151.182;2023-11-19T06:58:51;25.30;63.40
16744;DHT22;71724;-33.900;151.182;2023-11-19T07:01:19;25.20;63.40
16744;DHT22;71724;-33.900;151.182;2023-11-19T07:03:47;25.20;63.20
16744;DHT22;71724;-33.900;151.182;2023-11-19T07:06:14;25.10;63.40
16744;DHT22;71724;-33.900;151.182;2023-11-19T07:08:43;25.00;63.40
16744;DHT22;71724;-33.900;151.182;2023-11-19T07:11:14;25.00;63.70
16744;DHT22;71724;-33.900;151.182;2023-11-19T07:13:43;24.90;64.00
16744;DHT22;71724;-33.900;151.182;2023-11-19T07:16:14;24.90;64.10
16744;DHT22;71724;-33.900;151.182;2023-11-19T07:18:42;24.90;64.40
16744;DHT22;71724;-33.900;151.182;2023-11-19T07:21:10;24.80;64.40
16744;DHT22;71724;-33.900;151.182;2023-11-19T07:23:37;24.80;64.40
16744;DHT22;71724;-33.900;151.182;2023-11-19T07:26:06;24.80;64.90
16744;DHT22;71724;-33.900;151.182;2023-11-19T07:28:37;24.80;64.60
16744;DHT22;71724;-33.900;151.182;2023-11-19T07:31:06;24.80;64.30
16744;DHT22;71724;-33.900;151.182;2023-11-19T07:33:36;24.80;64.30
16744;DHT22;71724;-33.900;151.182;2023-11-19T07:36:05;24.70;64.80
16744;DHT22;71724;-33.900;151.182;2023-11-19T07:38:32;24.70;65.20
16744;DHT22;71724;-33.900;151.182;2023-11-19T07:41:00;24.60;65.20
16744;DHT22;71724;-33.900;151.182;2023-11-19T07:43:27;24.50;65.60
16744;DHT22;71724;-33.900;151.182;2023-11-19T07:45:55;24.30;66.10
16744;DHT22;71724;-33.900;151.182;2023-11-19T07:48:22;24.30;66.00
16744;DHT22;71724;-33.900;151.182;2023-11-19T07:50:50;24.30;66.30
16744;DHT22;71724;-33.900;151.182;2023-11-19T07:53:18;24.20;66.30
16744;DHT22;71724;-33.900;151.182;2023-11-19T07:55:46;24.10;66.60
16744;DHT22;71724;-33.900;151.182;2023-11-19T07:58:13;24.00;66.80
16744;DHT22;71724;-33.900;151.182;2023-11-19T08:00:40;24.00;67.00
16744;DHT22;71724;-33.900;151.182;2023-11-19T08:03:08;23.90;67.30
16744;DHT22;71724;-33.900;151.182;2023-11-19T08:05:36;23.80;67.50
16744;DHT22;71724;-33.900;151.182;2023-11-19T08:08:04;23.80;67.80
16744;DHT22;71724;-33.900;151.182;2023-11-19T08:10:31;23.70;68.00
16744;DHT22;71724;-33.900;151.182;2023-11-19T08:12:59;23.70;68.00
16744;DHT22;71724;-33.900;151.182;2023-11-19T08:15:27;23.70;68.30
16744;DHT22;71724;-33.900;151.182;2023-11-19T08:17:54;23.60;68.50
16744;DHT22;71724;-33.900;151.182;2023-11-19T08:20:22;23.60;68.60
16744;DHT22;71724;-33.900;151.182;2023-11-19T08:22:50;23.50;68.90
16744;DHT22;71724;-33.900;151.182;2023-11-19T08:25:17;23.40;69.10
16744;DHT22;71724;-33.900;151.182;2023-11-19T08:27:45;23.30;69.60
16744;DHT22;71724;-33.900;151.182;2023-11-19T08:30:13;23.20;69.60
16744;DHT22;71724;-33.900;151.182;2023-11-19T08:32:41;23.20;69.70
16744;DHT22;71724;-33.900;151.182;2023-11-19T08:35:08;23.20;70.00
16744;DHT22;71724;-33.900;151.182;2023-11-19T08:37:39;23.10;70.40
16744;DHT22;71724;-33.900;151.182;2023-11-19T08:40:07;23.00;70.40
16744;DHT22;71724;-33.900;151.182;2023-11-19T08:42:34;23.00;70.70
16744;DHT22;71724;-33.900;151.182;2023-11-19T08:45:03;23.10;70.50
16744;DHT22;71724;-33.900;151.182;2023-11-19T08:47:31;23.00;70.60
16744;DHT22;71724;-33.900;151.182;2023-11-19T08:49:58;22.90;70.80
16744;DHT22;71724;-33.900;151.182;2023-11-19T08:52:26;22.80;70.80
16744;DHT22;71724;-33.900;151.182;2023-11-19T08:54:53;22.80;71.10
16744;DHT22;71724;-33.900;151.182;2023-11-19T08:57:21;22.80;71.20
16744;DHT22;71724;-33.900;151.182;2023-11-19T08:59:52;22.80;71.50
16744;DHT22;71724;-33.900;151.182;2023-11-19T09:02:20;22.70;71.60
16744;DHT22;71724;-33.900;151.182;2023-11-19T09:04:47;22.70;71.70
16744;DHT22;71724;-33.900;151.182;2023-11-19T09:07:15;22.70;71.70
16744;DHT22;71724;-33.900;151.182;2023-11-19T09:09:42;22.70;71.80
16744;DHT22;71724;-33.900;151.182;2023-11-19T09:12:09;22.80;72.00
16744;DHT22;71724;-33.900;151.182;2023-11-19T09:14:37;22.70;71.90
16744;DHT22;71724;-33.900;151.182;2023-11-19T09:17:04;22.70;72.20
16744;DHT22;71724;-33.900;151.182;2023-11-19T09:19:33;22.60;72.20
16744;DHT22;71724;-33.900;151.182;2023-11-19T09:22:02;22.60;72.20
16744;DHT22;71724;-33.900;151.182;2023-11-19T09:24:30;22.50;72.70
16744;DHT22;71724;-33.900;151.182;2023-11-19T09:26:57;22.50;72.70
16744;DHT22;71724;-33.900;151.182;2023-11-19T09:29:25;22.50;72.80
16744;DHT22;71724;-33.900;151.182;2023-11-19T09:31:52;22.30;72.90
16744;DHT22;71724;-33.900;151.182;2023-11-19T09:34:20;22.30;73.20
16744;DHT22;71724;-33.900;151.182;2023-11-19T09:36:47;22.30;73.10
16744;DHT22;71724;-33.900;151.182;2023-11-19T09:39:15;22.30;73.20
16744;DHT22;71724;-33.900;151.182;2023-11-19T09:41:45;22.30;73.50
16744;DHT22;71724;-33.900;151.182;2023-11-19T09:44:13;22.30;73.50
16744;DHT22;71724;-33.900;151.182;2023-11-19T09:46:45;22.30;73.60
16744;DHT22;71724;-33.900;151.182;2023-11-19T09:49:13;22.20;73.60
16744;DHT22;71724;-33.900;151.182;2023-11-19T09:51:41;22.20;73.80
16744;DHT22;71724;-33.900;151.182;2023-11-19T09:54:09;22.30;74.00
16744;DHT22;71724;-33.900;151.182;2023-11-19T09:56:37;22.20;73.90
16744;DHT22;71724;-33.900;151.182;2023-11-19T09:59:06;22.20;74.10
16744;DHT22;71724;-33.900;151.182;2023-11-19T10:01:33;22.20;74.20
16744;DHT22;71724;-33.900;151.182;2023-11-19T10:04:02;22.20;74.10
16744;DHT22;71724;-33.900;151.182;2023-11-19T10:06:30;22.10;74.20
16744;DHT22;71724;-33.900;151.182;2023-11-19T10:08:57;22.10;74.30
16744;DHT22;71724;-33.900;151.182;2023-11-19T10:11:26;22.10;74.40
16744;DHT22;71724;-33.900;151.182;2023-11-19T10:13:54;22.10;74.70
16744;DHT22;71724;-33.900;151.182;2023-11-19T10:16:29;22.00;74.80
16744;DHT22;71724;-33.900;151.182;2023-11-19T10:18:58;22.00;74.80
16744;DHT22;71724;-33.900;151.182;2023-11-19T10:21:25;22.00;75.10
16744;DHT22;71724;-33.900;151.182;2023-11-19T10:23:57;21.90;75.10
16744;DHT22;71724;-33.900;151.182;2023-11-19T10:26:27;22.00;75.20
16744;DHT22;71724;-33.900;151.182;2023-11-19T10:28:56;22.00;75.30
16744;DHT22;71724;-33.900;151.182;2023-11-19T10:31:23;22.00;75.30
16744;DHT22;71724;-33.900;151.182;2023-11-19T10:33:52;22.00;75.30
16744;DHT22;71724;-33.900;151.182;2023-11-19T10:36:21;22.00;75.30
16744;DHT22;71724;-33.900;151.182;2023-11-19T10:38:57;21.90;75.40
16744;DHT22;71724;-33.900;151.182;2023-11-19T10:43:57;22.00;75.60
16744;DHT22;71724;-33.900;151.182;2023-11-19T10:46:37;22.00;75.40
16744;DHT22;71724;-33.900;151.182;2023-11-19T10:49:09;22.00;75.50
16744;DHT22;71724;-33.900;151.182;2023-11-19T10:51:42;22.00;75.40
16744;DHT22;71724;-33.900;151.182;2023-11-19T10:54:17;21.90;75.60
16744;DHT22;71724;-33.900;151.182;2023-11-19T10:56:54;22.00;75.90
16744;DHT22;71724;-33.900;151.182;2023-11-19T10:59:25;22.00;75.40
16744;DHT22;71724;-33.900;151.182;2023-11-19T11:01:54;22.00;75.60
16744;DHT22;71724;-33.900;151.182;2023-11-19T11:04:25;22.00;75.50
16744;DHT22;71724;-33.900;151.182;2023-11-19T11:06:59;22.00;75.30
16744;DHT22;71724;-33.900;151.182;2023-11-19T11:09:31;21.90;75.50
16744;DHT22;71724;-33.900;151.182;2023-11-19T11:11:59;21.90;75.70
16744;DHT22;71724;-33.900;151.182;2023-11-19T11:14:28;21.90;75.80
16744;DHT22;71724;-33.900;151.182;2023-11-19T11:16:56;21.90;75.50
16744;DHT22;71724;-33.900;151.182;2023-11-19T11:19:27;21.90;75.70
16744;DHT22;71724;-33.900;151.182;2023-11-19T11:21:56;21.90;75.90
16744;DHT22;71724;-33.900;151.182;2023-11-19T11:35:49;21.80;75.90
16744;DHT22;71724;-33.900;151.182;2023-11-19T11:38:25;21.80;75.90
16744;DHT22;71724;-33.900;151.182;2023-11-19T11:41:21;21.80;75.90
16744;DHT22;71724;-33.900;151.182;2023-11-19T11:43:58;21.80;76.00
16744;DHT22;71724;-33.900;151.182;2023-11-19T11:49:09;21.80;75.90
16744;DHT22;71724;-33.900;151.182;2023-11-19T11:51:57;21.70;76.00
16744;DHT22;71724;-33.900;151.182;2023-11-19T11:57:11;21.70;76.00
16744;DHT22;71724;-33.900;151.182;2023-11-19T12:02:12;21.70;76.30
16744;DHT22;71724;-33.900;151.182;2023-11-19T12:15:10;21.70;76.10
16744;DHT22;71724;-33.900;151.182;2023-11-19T12:20:14;21.70;76.00
16744;DHT22;71724;-33.900;151.182;2023-11-19T12:22:53;21.70;76.10
16744;DHT22;71724;-33.900;151.182;2023-11-19T12:25:23;21.70;76.20
16744;DHT22;71724;-33.900;151.182;2023-11-19T12:27:52;21.70;76.30
16744;DHT22;71724;-33.900;151.182;2023-11-19T12:30:24;21.70;76.30
16744;DHT22;71724;-33.900;151.182;2023-11-19T12:32:53;21.70;76.20
16744;DHT22;71724;-33.900;151.182;2023-11-19T12:35:21;21.70;76.20
16744;DHT22;71724;-33.900;151.182;2023-11-19T12:37:50;21.70;76.10
16744;DHT22;71724;-33.900;151.182;2023-11-19T12:40:24;21.70;76.30
16744;DHT22;71724;-33.900;151.182;2023-11-19T12:42:52;21.70;76.00
16744;DHT22;71724;-33.900;151.182;2023-11-19T12:45:20;21.70;76.20
16744;DHT22;71724;-33.900;151.182;2023-11-19T12:47:50;21.70;76.10
16744;DHT22;71724;-33.900;151.182;2023-11-19T12:50:19;21.70;76.20
16744;DHT22;71724;-33.900;151.182;2023-11-19T12:52:58;21.70;76.30
16744;DHT22;71724;-33.900;151.182;2023-11-19T12:55:28;21.60;76.30
16744;DHT22;71724;-33.900;151.182;2023-11-19T12:57:56;21.70;76.20
16744;DHT22;71724;-33.900;151.182;2023-11-19T13:00:27;21.70;76.20
16744;DHT22;71724;-33.900;151.182;2023-11-19T13:02:55;21.70;76.20
16744;DHT22;71724;-33.900;151.182;2023-11-19T13:05:31;21.70;76.30
16744;DHT22;71724;-33.900;151.182;2023-11-19T13:08:06;21.70;76.30
16744;DHT22;71724;-33.900;151.182;2023-11-19T13:10:51;21.60;76.40
16744;DHT22;71724;-33.900;151.182;2023-11-19T13:13:18;21.60;76.50
16744;DHT22;71724;-33.900;151.182;2023-11-19T13:15:46;21.70;76.40
16744;DHT22;71724;-33.900;151.182;2023-11-19T13:18:16;21.60;76.50
16744;DHT22;71724;-33.900;151.182;2023-11-19T13:20:44;21.70;76.50
16744;DHT22;71724;-33.900;151.182;2023-11-19T13:23:11;21.70;76.50
16744;DHT22;71724;-33.900;151.182;2023-11-19T13:25:40;21.60;76.60
16744;DHT22;71724;-33.900;151.182;2023-11-19T13:28:07;21.60;76.60
16744;DHT22;71724;-33.900;151.182;2023-11-19T13:30:36;21.60;76.50
16744;DHT22;71724;-33.900;151.182;2023-11-19T13:33:03;21.60;76.50
16744;DHT22;71724;-33.900;151.182;2023-11-19T13:35:31;21.60;76.50
16744;DHT22;71724;-33.900;151.182;2023-11-19T13:37:58;21.70;76.50
16744;DHT22;71724;-33.900;151.182;2023-11-19T13:40:25;21.70;76.40
16744;DHT22;71724;-33.900;151.182;2023-11-19T13:42:53;21.60;76.40
16744;DHT22;71724;-33.900;151.182;2023-11-19T13:45:20;21.60;76.40
16744;DHT22;71724;-33.900;151.182;2023-11-19T13:47:48;21.60;76.40
16744;DHT22;71724;-33.900;151.182;2023-11-19T13:50:16;21.60;76.40
16744;DHT22;71724;-33.900;151.182;2023-11-19T13:52:44;21.70;76.40
16744;DHT22;71724;-33.900;151.182;2023-11-19T13:55:14;21.60;76.40
16744;DHT22;71724;-33.900;151.182;2023-11-19T13:57:42;21.60;76.50
16744;DHT22;71724;-33.900;151.182;2023-11-19T14:00:11;21.60;76.50
16744;DHT22;71724;-33.900;151.182;2023-11-19T14:02:48;21.60;76.50
16744;DHT22;71724;-33.900;151.182;2023-11-19T14:05:16;21.60;76.70
16744;DHT22;71724;-33.900;151.182;2023-11-19T14:07:44;21.60;76.80
16744;DHT22;71724;-33.900;151.182;2023-11-19T14:10:15;21.60;76.70
16744;DHT22;71724;-33.900;151.182;2023-11-19T14:12:42;21.60;77.10
16744;DHT22;71724;-33.900;151.182;2023-11-19T14:15:10;21.60;77.10
16744;DHT22;71724;-33.900;151.182;2023-11-19T14:17:42;21.50;77.00
16744;DHT22;71724;-33.900;151.182;2023-11-19T14:20:10;21.60;77.20
16744;DHT22;71724;-33.900;151.182;2023-11-19T14:22:45;21.50;77.10
16744;DHT22;71724;-33.900;151.182;2023-11-19T14:25:18;21.50;77.10
16744;DHT22;71724;-33.900;151.182;2023-11-19T14:27:45;21.50;77.10
16744;DHT22;71724;-33.900;151.182;2023-11-19T14:30:13;21.50;77.20
16744;DHT22;71724;-33.900;151.182;2023-11-19T14:32:42;21.50;77.30
16744;DHT22;71724;-33.900;151.182;2023-11-19T14:35:13;21.50;77.40
16744;DHT22;71724;-33.900;151.182;2023-11-19T14:37:41;21.50;77.40
16744;DHT22;71724;-33.900;151.182;2023-11-19T14:40:08;21.50;77.40
16744;DHT22;71724;-33.900;151.182;2023-11-19T14:42:38;21.50;77.40
16744;DHT22;71724;-33.900;151.182;2023-11-19T14:45:06;21.50;77.50
16744;DHT22;71724;-33.900;151.182;2023-11-19T14:47:34;21.50;77.40
16744;DHT22;71724;-33.900;151.182;2023-11-19T14:50:01;21.50;77.40
16744;DHT22;71724;-33.900;151.182;2023-11-19T14:52:31;21.40;77.50
16744;DHT22;71724;-33.900;151.182;2023-11-19T14:54:58;21.50;77.50
16744;DHT22;71724;-33.900;151.182;2023-11-19T14:57:26;21.50;77.50
16744;DHT22;71724;-33.900;151.182;2023-11-19T14:59:53;21.50;77.50
16744;DHT22;71724;-33.900;151.182;2023-11-19T15:02:20;21.50;77.50
16744;DHT22;71724;-33.900;151.182;2023-11-19T15:04:48;21.50;77.60
16744;DHT22;71724;-33.900;151.182;2023-11-19T15:07:15;21.50;77.50
16744;DHT22;71724;-33.900;151.182;2023-11-19T15:09:43;21.50;77.50
16744;DHT22;71724;-33.900;151.182;2023-11-19T15:12:10;21.50;77.50
16744;DHT22;71724;-33.900;151.182;2023-11-19T15:14:38;21.50;77.40
16744;DHT22;71724;-33.900;151.182;2023-11-19T15:17:05;21.40;77.40
16744;DHT22;71724;-33.900;151.182;2023-11-19T15:19:34;21.40;77.60
16744;DHT22;71724;-33.900;151.182;2023-11-19T15:22:01;21.30;77.90
16744;DHT22;71724;-33.900;151.182;2023-11-19T15:24:32;21.30;78.00
16744;DHT22;71724;-33.900;151.182;2023-11-19T15:26:59;21.30;77.90
16744;DHT22;71724;-33.900;151.182;2023-11-19T15:29:27;21.30;78.00
16744;DHT22;71724;-33.900;151.182;2023-11-19T15:31:55;21.30;78.00